createdAt,value
2019-05-13T00:00:57.463Z,29.80
2019-05-13T00:03:26.880Z,33.10
2019-05-13T00:05:55.959Z,22.37
2019-05-13T00:08:25.344Z,26.30
2019-05-13T00:10:54.450Z,23.80
2019-05-13T00:13:23.832Z,23.80
2019-05-13T00:15:54.336Z,24.67
2019-05-13T00:18:23.743Z,25.73
2019-05-13T00:20:54.201Z,33.53
2019-05-13T00:23:23.538Z,36.93
2019-05-13T00:25:54.576Z,37.87
2019-05-13T00:28:24.116Z,28.13
2019-05-13T00:30:54.290Z,21.93
2019-05-13T00:33:24.383Z,19.80
2019-05-13T00:35:53.609Z,24.40
2019-05-13T00:38:24.599Z,26.70
2019-05-13T00:40:54.553Z,21.40
2019-05-13T00:43:24.509Z,25.63
2019-05-13T00:45:53.899Z,25.90
2019-05-13T00:48:23.455Z,20.80
2019-05-13T00:50:54.510Z,21.40
2019-05-13T00:53:23.853Z,23.67
2019-05-13T00:55:53.653Z,24.07
2019-05-13T00:58:24.134Z,24.03
2019-05-13T01:00:54.635Z,24.93
2019-05-13T01:03:26.305Z,20.83
2019-05-13T01:05:55.560Z,26.53
2019-05-13T01:08:25.912Z,25.50
2019-05-13T01:10:55.168Z,25.50
2019-05-13T01:13:43.188Z,19.70
2019-05-13T01:16:13.895Z,21.60
2019-05-13T01:18:43.252Z,21.63
2019-05-13T01:21:13.323Z,12.43
2019-05-13T01:23:43.859Z,15.03
2019-05-13T01:26:14.194Z,22.43
2019-05-13T01:28:43.797Z,23.30
2019-05-13T01:31:13.314Z,19.20
2019-05-13T01:33:44.515Z,19.60
2019-05-13T01:36:13.565Z,17.83
2019-05-13T01:38:43.612Z,17.30
2019-05-13T01:41:13.639Z,21.30
2019-05-13T01:43:44.100Z,21.07
2019-05-13T01:46:13.582Z,22.27
2019-05-13T01:48:44.232Z,15.77
2019-05-13T01:51:14.362Z,21.53
2019-05-13T01:53:44.172Z,13.30
2019-05-13T01:56:14.242Z,16.13
2019-05-13T01:58:44.945Z,11.67
2019-05-13T02:01:14.773Z,10.03
2019-05-13T02:03:44.356Z,12.27
2019-05-13T02:06:14.234Z,10.23
2019-05-13T02:08:44.056Z,11.70
2019-05-13T02:11:13.409Z,15.20
2019-05-13T02:13:44.671Z,11.97
2019-05-13T02:16:14.557Z,15.80
2019-05-13T02:18:44.398Z,19.43
2019-05-13T02:21:13.954Z,12.20
2019-05-13T02:23:44.346Z,14.77
2019-05-13T02:26:13.730Z,11.93
2019-05-13T02:28:43.606Z,11.97
2019-05-13T02:31:18.851Z,8.77
2019-05-13T02:33:43.717Z,13.90
2019-05-13T02:36:13.513Z,7.67
2019-05-13T02:38:43.009Z,10.60
2019-05-13T02:41:13.357Z,13.50
2019-05-13T02:43:45.335Z,12.13
2019-05-13T02:46:14.320Z,17.33
2019-05-13T02:48:43.405Z,9.17
2019-05-13T02:51:12.668Z,14.63
2019-05-13T02:53:43.717Z,12.10
2019-05-13T02:56:12.402Z,21.03
2019-05-13T02:58:42.837Z,15.70
2019-05-13T03:01:12.674Z,18.50
2019-05-13T03:03:44.423Z,14.03
2019-05-13T03:06:14.391Z,17.77
2019-05-13T03:08:49.461Z,10.47
2019-05-13T03:11:14.390Z,11.97
2019-05-13T03:13:43.555Z,13.10
2019-05-13T03:16:27.447Z,13.03
2019-05-13T03:18:56.497Z,12.93
2019-05-13T03:21:25.599Z,13.23
2019-05-13T03:23:55.064Z,11.00
2019-05-13T03:26:24.303Z,14.87
2019-05-13T03:28:54.416Z,11.53
2019-05-13T03:31:26.525Z,11.03
2019-05-13T03:33:56.394Z,11.87
2019-05-13T03:36:26.488Z,10.20
2019-05-13T03:39:05.621Z,8.93
2019-05-13T03:41:28.867Z,20.23
2019-05-13T03:44:02.352Z,13.60
2019-05-13T03:46:33.316Z,17.27
2019-05-13T03:49:02.897Z,17.20
2019-05-13T03:51:32.791Z,20.60
2019-05-13T03:54:03.074Z,19.43
2019-05-13T03:56:33.004Z,11.23
2019-05-13T03:59:02.886Z,28.07
2019-05-13T04:01:32.785Z,16.87
2019-05-13T04:04:03.263Z,21.80
2019-05-13T04:06:32.816Z,25.00
2019-05-13T04:09:20.562Z,18.07
2019-05-13T04:11:33.139Z,26.87
2019-05-13T04:14:03.234Z,8.70
2019-05-13T04:16:32.471Z,19.33
2019-05-13T04:19:02.732Z,16.00
2019-05-13T04:21:33.776Z,15.97
2019-05-13T04:24:03.937Z,19.77
2019-05-13T04:26:33.279Z,15.77
2019-05-13T04:29:03.369Z,20.23
2019-05-13T04:31:33.492Z,20.80
2019-05-13T04:34:03.558Z,23.00
2019-05-13T04:36:32.749Z,23.53
2019-05-13T04:39:03.234Z,20.13
2019-05-13T04:41:33.526Z,24.27
2019-05-13T04:44:03.137Z,18.57
2019-05-13T04:46:32.922Z,23.83
2019-05-13T04:49:02.531Z,27.50
2019-05-13T04:51:32.855Z,25.90
2019-05-13T04:54:03.118Z,26.93
2019-05-13T04:56:33.079Z,25.23
2019-05-13T04:59:03.198Z,19.83
2019-05-13T05:02:13.126Z,7.97
2019-05-13T05:04:59.119Z,13.87
2019-05-13T05:07:45.454Z,6.53
2019-05-13T05:10:38.792Z,18.53
2019-05-13T05:13:42.857Z,17.83
2019-05-13T05:16:33.706Z,10.97
2019-05-13T05:19:14.943Z,22.67
2019-05-13T05:22:03.221Z,8.80
2019-05-13T05:25:01.579Z,7.77
2019-05-13T05:28:11.043Z,11.97
2019-05-13T05:31:13.328Z,6.53
2019-05-13T05:34:11.625Z,15.13
2019-05-13T05:37:11.852Z,3.80
2019-05-13T05:39:42.066Z,18.50
2019-05-13T05:42:13.502Z,13.63
2019-05-13T05:44:43.423Z,8.40
2019-05-13T05:47:13.326Z,6.03
2019-05-13T05:49:43.703Z,14.60
2019-05-13T05:52:13.244Z,11.30
2019-05-13T05:54:42.543Z,16.93
2019-05-13T05:57:12.310Z,9.97
2019-05-13T05:59:42.652Z,13.83
2019-05-13T06:02:12.313Z,9.47
2019-05-13T06:04:43.009Z,7.33
2019-05-13T06:07:12.696Z,13.83
2019-05-13T06:09:42.443Z,12.90
2019-05-13T06:12:12.416Z,10.47
2019-05-13T06:14:42.756Z,17.77
2019-05-13T06:17:11.764Z,10.03
2019-05-13T06:19:43.172Z,13.00
2019-05-13T06:22:12.501Z,12.63
2019-05-13T06:24:42.767Z,14.03
2019-05-13T06:27:11.946Z,9.20
2019-05-13T06:29:42.391Z,18.80
2019-05-13T06:32:18.988Z,9.23
2019-05-13T06:34:44.091Z,16.07
2019-05-13T06:37:13.314Z,14.27
2019-05-13T06:39:48.208Z,12.83
2019-05-13T06:42:17.185Z,16.77
2019-05-13T06:44:46.209Z,11.57
2019-05-13T06:47:15.293Z,8.33
2019-05-13T06:49:44.343Z,12.87
2019-05-13T06:52:13.845Z,11.95
2019-05-13T06:54:43.090Z,9.10
2019-05-13T06:57:13.624Z,8.10
2019-05-13T06:59:43.010Z,7.63
2019-05-13T07:02:12.524Z,12.27
2019-05-13T07:04:42.024Z,5.60
2019-05-13T07:07:16.685Z,8.60
2019-05-13T07:09:42.886Z,8.47
2019-05-13T07:12:12.076Z,13.97
2019-05-13T07:14:42.022Z,16.57
2019-05-13T07:17:12.308Z,11.77
2019-05-13T07:19:42.349Z,9.97
2019-05-13T07:22:13.317Z,18.87
2019-05-13T07:24:42.507Z,11.97
2019-05-13T07:27:12.307Z,15.93
2019-05-13T07:29:42.504Z,5.77
2019-05-13T07:32:12.108Z,5.90
2019-05-13T07:34:43.820Z,8.57
2019-05-13T07:37:13.095Z,4.70
2019-05-13T07:39:42.155Z,5.10
2019-05-13T07:42:12.359Z,9.17
2019-05-13T07:44:41.905Z,13.03
2019-05-13T07:47:11.751Z,7.63
2019-05-13T07:49:42.103Z,10.60
2019-05-13T07:52:12.028Z,4.80
2019-05-13T07:54:41.949Z,10.27
2019-05-13T07:57:12.263Z,8.00
2019-05-13T07:59:42.049Z,10.73
2019-05-13T08:02:12.608Z,5.63
2019-05-13T08:04:42.239Z,7.47
2019-05-13T08:07:12.180Z,6.73
2019-05-13T08:09:42.380Z,8.60
2019-05-13T08:12:14.338Z,7.43
2019-05-13T08:14:43.590Z,5.43
2019-05-13T08:17:13.275Z,13.90
2019-05-13T08:19:44.671Z,6.40
2019-05-13T08:22:14.093Z,5.93
2019-05-13T08:24:44.172Z,7.20
2019-05-13T08:27:13.439Z,12.70
2019-05-13T08:29:42.765Z,11.07
2019-05-13T08:32:11.716Z,5.73
2019-05-13T08:34:41.734Z,7.30
2019-05-13T08:37:11.433Z,9.57
2019-05-13T08:39:42.029Z,7.93
2019-05-13T08:42:15.841Z,6.00
2019-05-13T08:44:42.204Z,7.47
2019-05-13T08:47:12.072Z,9.30
2019-05-13T08:49:42.534Z,6.23
2019-05-13T08:52:12.251Z,5.80
2019-05-13T08:54:41.997Z,8.40
2019-05-13T08:57:11.895Z,6.43
2019-05-13T08:59:42.386Z,6.63
2019-05-13T09:02:11.834Z,7.17
2019-05-13T09:04:42.181Z,6.10
2019-05-13T09:07:12.443Z,9.47
2019-05-13T09:09:42.747Z,4.70
2019-05-13T09:12:28.132Z,5.83
2019-05-13T09:14:43.765Z,11.97
2019-05-13T09:17:12.855Z,6.37
2019-05-13T09:19:42.237Z,9.50
2019-05-13T09:22:12.357Z,6.67
2019-05-13T09:24:42.860Z,6.03
2019-05-13T09:27:12.309Z,4.53
2019-05-13T09:29:43.150Z,6.73
2019-05-13T09:32:12.489Z,9.83
2019-05-13T09:34:43.426Z,9.30
2019-05-13T09:37:14.146Z,7.97
2019-05-13T09:39:44.845Z,8.73
2019-05-13T09:42:15.545Z,7.73
2019-05-13T09:44:47.715Z,3.93
2019-05-13T09:47:21.885Z,11.53
2019-05-13T09:49:54.559Z,10.90
2019-05-13T09:52:24.594Z,9.13
2019-05-13T09:54:55.295Z,5.47
2019-05-13T09:57:26.171Z,5.77
2019-05-13T09:59:56.761Z,4.37
2019-05-13T10:02:27.543Z,3.83
2019-05-13T10:04:58.314Z,10.13
2019-05-13T10:07:31.550Z,7.87
2019-05-13T10:10:01.893Z,7.90
2019-05-13T10:12:32.145Z,4.33
2019-05-13T10:15:02.613Z,6.57
2019-05-13T10:17:32.042Z,5.33
2019-05-13T10:20:01.151Z,7.33
2019-05-13T10:22:31.991Z,3.83
2019-05-13T10:25:02.617Z,8.20
2019-05-13T10:27:32.787Z,8.43
2019-05-13T10:30:02.856Z,5.47
2019-05-13T10:32:32.542Z,7.57
2019-05-13T10:35:03.537Z,5.37
2019-05-13T10:37:32.988Z,3.70
2019-05-13T10:40:02.700Z,12.03
2019-05-13T10:42:33.049Z,3.20
2019-05-13T10:45:02.778Z,6.83
2019-05-13T10:47:32.088Z,11.97
2019-05-13T10:50:02.820Z,5.83
2019-05-13T10:52:32.416Z,6.93
2019-05-13T10:55:02.163Z,6.67
2019-05-13T10:57:32.435Z,9.37
2019-05-13T11:00:03.282Z,8.33
2019-05-13T11:02:32.899Z,4.63
2019-05-13T11:05:03.216Z,8.73
2019-05-13T11:07:32.581Z,4.87
2019-05-13T11:10:02.385Z,9.97
2019-05-13T11:12:33.504Z,5.20
2019-05-13T11:15:03.427Z,4.53
2019-05-13T11:17:33.290Z,5.00
2019-05-13T11:20:03.502Z,8.47
2019-05-13T11:22:32.983Z,11.37
2019-05-13T11:25:02.712Z,21.20
2019-05-13T11:27:32.496Z,5.10
2019-05-13T11:30:06.391Z,4.97
2019-05-13T11:32:34.847Z,2.23
2019-05-13T11:35:04.247Z,3.03
2019-05-13T11:37:34.673Z,7.47
2019-05-13T11:40:03.922Z,9.93
2019-05-13T11:42:33.383Z,4.30
2019-05-13T11:45:02.582Z,9.13
2019-05-13T11:47:32.321Z,6.40
2019-05-13T11:50:02.483Z,4.83
2019-05-13T11:52:31.826Z,4.47
2019-05-13T11:55:02.659Z,5.43
2019-05-13T11:57:31.768Z,5.93
2019-05-13T12:00:02.540Z,12.20
2019-05-13T12:02:32.700Z,5.87
2019-05-13T12:05:03.888Z,9.80
2019-05-13T12:07:34.032Z,19.80
2019-05-13T12:10:05.084Z,12.30
2019-05-13T12:12:34.780Z,14.37
2019-05-13T12:15:26.487Z,4.97
2019-05-13T12:17:35.923Z,8.63
2019-05-13T12:20:05.378Z,18.67
2019-05-13T12:22:34.513Z,11.10
2019-05-13T12:25:03.940Z,6.07
2019-05-13T12:27:32.934Z,8.97
2019-05-13T12:30:03.249Z,13.37
2019-05-13T12:32:32.816Z,13.30
2019-05-13T12:35:03.874Z,7.30
2019-05-13T12:37:33.618Z,14.80
2019-05-13T12:40:03.724Z,5.70
2019-05-13T12:42:33.950Z,10.27
2019-05-13T12:45:09.904Z,8.07
2019-05-13T12:47:34.789Z,4.53
2019-05-13T12:50:04.088Z,3.00
2019-05-13T12:52:33.331Z,11.67
2019-05-13T12:55:03.534Z,9.40
2019-05-13T12:57:32.638Z,13.23
2019-05-13T13:00:02.739Z,7.97
2019-05-13T13:02:33.807Z,4.37
2019-05-13T13:05:15.742Z,7.57
2019-05-13T13:07:40.833Z,9.13
2019-05-13T13:10:04.294Z,3.33
2019-05-13T13:12:36.179Z,7.83
2019-05-13T13:15:31.861Z,6.83
2019-05-13T13:17:35.117Z,4.00
2019-05-13T13:20:09.054Z,5.07
2019-05-13T13:22:36.308Z,6.43
2019-05-13T13:25:06.394Z,5.90
2019-05-13T13:28:04.051Z,10.77
2019-05-13T13:30:08.641Z,6.60
2019-05-13T13:32:38.124Z,2.80
2019-05-13T13:35:07.955Z,5.37
2019-05-13T13:37:37.545Z,7.27
2019-05-13T13:40:07.024Z,6.13
2019-05-13T13:42:37.030Z,9.30
2019-05-13T13:45:06.502Z,3.47
2019-05-13T13:47:35.660Z,7.07
2019-05-13T13:50:05.185Z,5.60
2019-05-13T13:52:34.299Z,5.03
2019-05-13T13:55:08.592Z,3.63
2019-05-13T13:57:34.381Z,3.97
2019-05-13T14:00:34.681Z,9.03
2019-05-13T14:02:37.045Z,9.70
2019-05-13T14:05:07.152Z,6.50
2019-05-13T14:07:38.930Z,10.17
2019-05-13T14:10:07.454Z,4.83
2019-05-13T14:12:37.372Z,9.70
2019-05-13T14:15:08.716Z,11.77
2019-05-13T14:17:38.060Z,6.70
2019-05-13T14:20:07.353Z,13.10
2019-05-13T14:22:36.499Z,21.77
2019-05-13T14:25:06.206Z,10.83
2019-05-13T14:27:35.522Z,8.30
2019-05-13T14:30:05.455Z,4.70
2019-05-13T14:32:34.709Z,4.57
2019-05-13T14:35:03.958Z,6.37
2019-05-13T14:37:33.419Z,6.10
2019-05-13T14:40:02.691Z,9.20
2019-05-13T14:42:32.427Z,8.73
2019-05-13T14:45:02.101Z,5.60
2019-05-13T14:47:32.120Z,8.07
2019-05-13T14:50:02.115Z,5.27
2019-05-13T14:52:32.312Z,8.50
2019-05-13T14:55:02.331Z,7.57
2019-05-13T14:57:32.253Z,10.47
2019-05-13T15:00:02.600Z,4.77
2019-05-13T15:02:35.334Z,7.27
2019-05-13T15:05:02.990Z,16.67
2019-05-13T15:07:32.387Z,12.97
2019-05-13T15:10:02.489Z,7.40
2019-05-13T15:12:32.528Z,14.10
2019-05-13T15:15:03.016Z,13.50
2019-05-13T15:17:36.290Z,5.63
2019-05-13T15:20:06.105Z,9.03
2019-05-13T15:22:35.484Z,14.67
2019-05-13T15:25:05.098Z,10.50
2019-05-13T15:27:34.419Z,11.47
2019-05-13T15:30:16.819Z,7.57
2019-05-13T15:32:35.148Z,10.17
2019-05-13T15:35:05.808Z,15.57
2019-05-13T15:37:35.094Z,5.83
2019-05-13T15:40:06.221Z,7.23
2019-05-13T15:42:35.699Z,7.90
2019-05-13T15:45:05.434Z,14.60
2019-05-13T15:47:34.554Z,10.27
2019-05-13T15:50:03.703Z,6.93
2019-05-13T15:52:32.751Z,9.93
2019-05-13T15:55:01.809Z,8.03
2019-05-13T15:57:32.491Z,7.20
2019-05-13T16:00:02.062Z,7.07
2019-05-13T16:02:31.493Z,7.50
2019-05-13T16:05:04.820Z,5.77
2019-05-13T16:07:33.078Z,8.67
2019-05-13T16:10:02.135Z,5.03
2019-05-13T16:12:32.996Z,5.15
2019-05-13T16:15:02.328Z,9.00
2019-05-13T16:17:41.036Z,11.70
2019-05-13T16:20:02.707Z,3.08
2019-05-13T16:22:31.710Z,3.72
2019-05-13T16:25:01.653Z,12.05
2019-05-13T16:27:31.852Z,8.37
2019-05-13T16:30:02.448Z,4.20
2019-05-13T16:32:32.997Z,3.90
2019-05-13T16:35:02.994Z,6.77
2019-05-13T16:37:32.121Z,5.33
2019-05-13T16:40:03.087Z,7.67
2019-05-13T16:42:32.120Z,14.23
2019-05-13T16:45:01.340Z,11.80
2019-05-13T16:47:33.903Z,5.23
2019-05-13T16:50:05.569Z,15.77
2019-05-13T16:52:34.786Z,4.73
2019-05-13T16:55:03.893Z,3.50
2019-05-13T16:57:33.237Z,9.30
2019-05-13T17:00:02.634Z,2.90
2019-05-13T17:02:33.164Z,8.80
2019-05-13T17:05:02.627Z,6.63
2019-05-13T17:07:32.406Z,15.20
2019-05-13T17:10:03.707Z,6.43
2019-05-13T17:12:33.258Z,5.10
2019-05-13T17:15:02.729Z,9.47
2019-05-13T17:17:33.607Z,7.70
2019-05-13T17:20:02.799Z,9.43
2019-05-13T17:22:32.937Z,9.30
2019-05-13T17:25:02.662Z,9.97
2019-05-13T17:27:33.073Z,3.97
2019-05-13T17:30:03.123Z,13.90
2019-05-13T17:32:33.291Z,9.80
2019-05-13T17:35:02.547Z,14.77
2019-05-13T17:37:32.177Z,14.07
2019-05-13T17:40:02.099Z,8.33
2019-05-13T17:42:32.230Z,9.63
2019-05-13T17:45:02.428Z,10.80
2019-05-13T17:47:33.072Z,5.13
2019-05-13T17:50:02.628Z,12.27
2019-05-13T17:52:31.841Z,5.73
2019-05-13T17:55:01.230Z,12.10
2019-05-13T17:57:32.084Z,20.73
2019-05-13T18:00:01.133Z,14.50
2019-05-13T18:02:31.446Z,6.53
2019-05-13T18:05:02.111Z,4.57
2019-05-13T18:07:32.138Z,9.63
2019-05-13T18:10:01.690Z,8.37
2019-05-13T18:12:32.359Z,9.40
2019-05-13T18:15:02.480Z,4.13
2019-05-13T18:17:31.735Z,4.83
2019-05-13T18:20:02.648Z,15.73
2019-05-13T18:22:31.620Z,4.13
2019-05-13T18:25:02.579Z,9.43
2019-05-13T18:27:32.445Z,4.67
2019-05-13T18:30:02.291Z,9.53
2019-05-13T18:32:32.077Z,11.00
2019-05-13T18:35:01.705Z,9.83
2019-05-13T18:37:33.224Z,12.60
2019-05-13T18:40:02.659Z,12.20
2019-05-13T18:42:33.208Z,11.77
2019-05-13T18:45:02.458Z,7.70
2019-05-13T18:47:32.830Z,7.60
2019-05-13T18:50:02.426Z,7.33
2019-05-13T18:52:31.509Z,7.63
2019-05-13T18:55:02.040Z,5.33
2019-05-13T18:57:33.158Z,10.70
2019-05-13T19:00:02.620Z,10.43
2019-05-13T19:02:32.123Z,15.43
2019-05-13T19:05:01.613Z,7.20
2019-05-13T19:07:31.608Z,12.57
2019-05-13T19:10:02.567Z,17.13
2019-05-13T19:12:31.840Z,8.93
2019-05-13T19:15:02.407Z,9.90
2019-05-13T19:17:32.363Z,5.27
2019-05-13T19:20:01.732Z,4.83
2019-05-13T19:22:34.500Z,5.30
2019-05-13T19:25:04.121Z,12.30
2019-05-13T19:27:33.674Z,4.20
2019-05-13T19:30:02.678Z,3.87
2019-05-13T19:32:32.514Z,5.43
2019-05-13T19:35:02.553Z,10.27
2019-05-13T19:37:32.500Z,4.07
2019-05-13T19:40:01.634Z,7.90
2019-05-13T19:42:31.509Z,5.20
2019-05-13T19:45:01.900Z,12.73
2019-05-13T19:47:32.740Z,2.60
2019-05-13T19:50:03.068Z,8.10
2019-05-13T19:52:33.893Z,12.40
2019-05-13T19:55:03.097Z,11.23
2019-05-13T19:57:33.199Z,11.70
2019-05-13T20:00:02.364Z,4.77
2019-05-13T20:02:32.203Z,2.87
2019-05-13T20:05:01.383Z,5.93
2019-05-13T20:07:31.843Z,7.93
2019-05-13T20:10:02.839Z,13.70
2019-05-13T20:12:32.088Z,10.57
2019-05-13T20:15:01.829Z,11.47
2019-05-13T20:17:32.108Z,3.63
2019-05-13T20:20:02.225Z,11.17
2019-05-13T20:22:33.778Z,6.37
2019-05-13T20:25:03.160Z,10.30
2019-05-13T20:27:34.153Z,8.13
2019-05-13T20:30:03.288Z,10.40
2019-05-13T20:32:32.485Z,4.83
2019-05-13T20:35:02.263Z,16.63
2019-05-13T20:37:32.176Z,13.50
2019-05-13T20:40:02.292Z,11.20
2019-05-13T20:42:31.916Z,5.63
2019-05-13T20:45:02.438Z,6.50
2019-05-13T20:47:33.443Z,8.40
2019-05-13T20:50:04.877Z,5.30
2019-05-13T20:52:33.916Z,7.23
2019-05-13T20:55:03.151Z,3.10
2019-05-13T20:57:32.445Z,7.07
2019-05-13T21:00:02.414Z,7.27
2019-05-13T21:02:32.089Z,2.33
2019-05-13T21:05:01.866Z,3.73
2019-05-13T21:07:32.138Z,4.87
2019-05-13T21:10:05.096Z,7.00
2019-05-13T21:12:35.324Z,7.97
2019-05-13T21:15:04.920Z,4.63
2019-05-13T21:17:33.904Z,5.87
2019-05-13T21:20:18.239Z,13.20
2019-05-13T21:22:34.054Z,4.77
2019-05-13T21:25:03.161Z,5.13
2019-05-13T21:27:32.327Z,7.67
2019-05-13T21:30:01.439Z,4.77
2019-05-13T21:32:30.739Z,5.30
2019-05-13T21:35:01.737Z,8.73
2019-05-13T21:37:31.691Z,3.70
2019-05-13T21:40:01.063Z,5.33
2019-05-13T21:42:32.135Z,2.00
2019-05-13T21:45:01.886Z,7.30
2019-05-13T21:47:31.356Z,9.13
2019-05-13T21:50:02.212Z,5.50
2019-05-13T21:52:32.340Z,4.87
2019-05-13T21:55:01.944Z,4.73
2019-05-13T21:57:34.559Z,3.27
2019-05-13T22:00:08.766Z,2.03
2019-05-13T22:02:40.682Z,3.63
2019-05-13T22:05:11.652Z,5.07
2019-05-13T22:07:42.073Z,6.90
2019-05-13T22:10:11.745Z,6.77
2019-05-13T22:12:43.562Z,9.17
2019-05-13T22:15:18.652Z,4.57
2019-05-13T22:17:51.262Z,5.57
2019-05-13T22:20:21.667Z,4.17
2019-05-13T22:22:52.031Z,4.53
2019-05-13T22:25:21.432Z,3.90
2019-05-13T22:27:51.881Z,3.93
2019-05-13T22:30:21.368Z,11.83
2019-05-13T22:32:52.314Z,5.47
2019-05-13T22:35:22.182Z,2.53
2019-05-13T22:37:51.629Z,5.33
2019-05-13T22:40:21.891Z,5.53
2019-05-13T22:42:56.764Z,3.60
2019-05-13T22:45:23.233Z,4.70
2019-05-13T22:47:52.532Z,7.10
2019-05-13T22:50:21.921Z,3.43
2019-05-13T22:52:51.853Z,2.90
2019-05-13T22:55:21.899Z,4.80
2019-05-13T22:57:51.131Z,5.93
2019-05-13T23:00:22.382Z,10.10
2019-05-13T23:02:52.514Z,5.93
2019-05-13T23:05:22.172Z,4.20
2019-05-13T23:07:52.087Z,3.13
2019-05-13T23:10:22.572Z,3.70
2019-05-13T23:12:52.902Z,4.43
2019-05-13T23:15:22.270Z,5.03
2019-05-13T23:17:52.012Z,3.30
2019-05-13T23:20:21.368Z,3.10
2019-05-13T23:22:51.929Z,2.10
2019-05-13T23:25:21.536Z,8.13
2019-05-13T23:27:51.295Z,4.77
2019-05-13T23:30:21.010Z,4.67
2019-05-13T23:32:51.786Z,3.03
2019-05-13T23:35:21.725Z,5.10
2019-05-13T23:37:51.108Z,2.40
2019-05-13T23:40:20.147Z,3.37
2019-05-13T23:42:51.607Z,5.20
2019-05-13T23:45:21.804Z,3.73
2019-05-13T23:47:52.323Z,2.67
2019-05-13T23:50:21.884Z,2.27
2019-05-13T23:52:51.379Z,7.43
2019-05-13T23:55:22.474Z,1.87
2019-05-13T23:57:52.523Z,5.70
